createdAt,value
2023-05-05T00:02:19.447Z,12.87
2023-05-05T00:05:24.088Z,12.83
2023-05-05T00:08:27.149Z,12.74
2023-05-05T00:11:30.071Z,12.78
2023-05-05T00:14:33.476Z,12.70
2023-05-05T00:17:36.526Z,12.63
2023-05-05T00:20:39.341Z,12.63
2023-05-05T00:23:42.445Z,12.57
2023-05-05T00:26:45.287Z,12.55
2023-05-05T00:29:48.280Z,12.54
2023-05-05T00:32:51.621Z,12.40
2023-05-05T00:35:54.620Z,12.30
2023-05-05T00:39:04.943Z,12.33
2023-05-05T00:42:12.993Z,12.31
2023-05-05T00:45:15.926Z,12.23
2023-05-05T00:48:19.628Z,12.21
2023-05-05T00:51:28.357Z,12.18
2023-05-05T00:54:31.620Z,12.14
2023-05-05T00:57:45.778Z,12.13
2023-05-05T01:00:48.900Z,12.15
2023-05-05T01:03:51.800Z,12.11
2023-05-05T01:07:33.158Z,12.23
2023-05-05T01:10:44.370Z,12.17
2023-05-05T01:13:56.840Z,12.30
2023-05-05T01:17:02.746Z,12.50
2023-05-05T01:20:11.359Z,12.34
2023-05-05T01:23:28.487Z,12.36
2023-05-05T01:26:42.882Z,12.24
2023-05-05T01:30:13.458Z,12.15
2023-05-05T01:33:23.363Z,12.17
2023-05-05T01:36:55.854Z,11.96
2023-05-05T01:40:05.270Z,11.69
2023-05-05T01:43:10.548Z,11.69
2023-05-05T01:46:28.328Z,11.65
2023-05-05T01:49:33.340Z,11.69
2023-05-05T01:52:41.258Z,11.59
2023-05-05T01:55:49.526Z,11.59
2023-05-05T01:59:47.086Z,11.60
2023-05-05T02:02:28.856Z,11.64
2023-05-05T02:05:33.749Z,11.61
2023-05-05T02:08:38.065Z,11.59
2023-05-05T02:11:41.884Z,11.51
2023-05-05T02:14:46.440Z,11.35
2023-05-05T02:17:54.409Z,11.28
2023-05-05T02:20:57.729Z,11.25
2023-05-05T02:24:01.438Z,11.22
2023-05-05T02:27:07.507Z,11.14
2023-05-05T02:30:15.994Z,10.99
2023-05-05T02:33:21.465Z,11.01
2023-05-05T02:36:29.152Z,10.80
2023-05-05T02:39:38.407Z,10.75
2023-05-05T02:42:48.142Z,10.87
2023-05-05T02:45:51.151Z,10.85
2023-05-05T02:48:55.133Z,10.81
2023-05-05T02:51:58.148Z,10.80
2023-05-05T02:55:02.982Z,10.81
2023-05-05T02:58:08.663Z,10.72
2023-05-05T03:01:25.759Z,10.63
2023-05-05T03:04:38.554Z,10.61
2023-05-05T03:07:51.552Z,10.69
2023-05-05T03:11:05.131Z,10.56
2023-05-05T03:14:17.340Z,10.42
2023-05-05T03:17:22.635Z,10.09
2023-05-05T03:20:26.817Z,10.18
2023-05-05T03:23:32.681Z,10.10
2023-05-05T03:26:35.802Z,10.08
2023-05-05T03:29:38.620Z,10.21
2023-05-05T03:32:42.989Z,10.17
2023-05-05T03:35:46.032Z,10.28
2023-05-05T03:38:49.704Z,10.25
2023-05-05T03:41:53.937Z,10.29
2023-05-05T03:44:57.451Z,10.38
2023-05-05T03:48:00.965Z,10.40
2023-05-05T03:51:04.702Z,10.36
2023-05-05T03:54:08.451Z,10.27
2023-05-05T03:57:11.830Z,10.33
2023-05-05T04:00:15.352Z,10.45
2023-05-05T04:03:20.068Z,10.58
2023-05-05T04:06:23.512Z,10.65
2023-05-05T04:09:26.796Z,10.64
2023-05-05T04:12:29.910Z,10.54
2023-05-05T04:15:33.178Z,10.57
2023-05-05T04:18:37.021Z,10.75
2023-05-05T04:21:40.375Z,10.81
2023-05-05T04:24:43.375Z,10.96
2023-05-05T04:28:43.134Z,11.02
2023-05-05T04:31:46.539Z,11.14
2023-05-05T04:34:50.664Z,11.23
2023-05-05T04:37:54.877Z,11.52
2023-05-05T04:40:58.021Z,11.58
2023-05-05T04:44:00.974Z,11.73
2023-05-05T04:47:04.385Z,11.91
2023-05-05T04:50:08.452Z,12.08
2023-05-05T04:53:11.916Z,12.30
2023-05-05T04:56:14.896Z,12.50
2023-05-05T04:59:17.982Z,12.92
2023-05-05T05:02:20.785Z,13.03
2023-05-05T05:05:25.362Z,13.24
2023-05-05T05:08:28.143Z,13.32
2023-05-05T05:11:31.247Z,13.52
2023-05-05T05:14:40.573Z,13.74
2023-05-05T05:17:43.597Z,13.74
2023-05-05T05:20:46.535Z,13.63
2023-05-05T05:23:50.212Z,13.90
2023-05-05T05:26:53.065Z,14.18
2023-05-05T05:29:56.202Z,14.25
2023-05-05T05:32:59.971Z,14.58
2023-05-05T05:36:03.648Z,14.64
2023-05-05T05:39:06.883Z,14.74
2023-05-05T05:42:10.151Z,15.00
2023-05-05T05:45:13.467Z,15.16
2023-05-05T05:48:18.685Z,15.25
2023-05-05T05:51:21.544Z,15.52
2023-05-05T05:54:25.331Z,15.76
2023-05-05T05:57:28.188Z,15.94
2023-05-05T06:00:31.546Z,16.24
2023-05-05T06:03:35.292Z,16.21
2023-05-05T06:06:38.284Z,16.18
2023-05-05T06:09:41.631Z,16.85
2023-05-05T06:12:45.296Z,16.72
2023-05-05T06:15:48.654Z,16.85
2023-05-05T06:18:52.180Z,17.11
2023-05-05T06:21:55.458Z,17.38
2023-05-05T06:24:58.580Z,17.30
2023-05-05T06:28:02.328Z,17.44
2023-05-05T06:31:05.740Z,17.53
2023-05-05T06:34:09.287Z,17.39
2023-05-05T06:37:12.578Z,17.59
2023-05-05T06:40:15.996Z,17.72
2023-05-05T06:43:19.041Z,17.99
2023-05-05T06:46:22.727Z,18.13
2023-05-05T06:49:25.881Z,18.36
2023-05-05T06:52:29.346Z,18.44
2023-05-05T06:55:32.544Z,18.19
2023-05-05T06:58:36.302Z,17.91
2023-05-05T07:01:39.410Z,18.13
2023-05-05T07:04:44.005Z,18.32
2023-05-05T07:07:54.737Z,18.47
2023-05-05T07:10:57.983Z,18.36
2023-05-05T07:14:01.259Z,18.37
2023-05-05T07:17:04.309Z,18.44
2023-05-05T07:20:11.329Z,18.61
2023-05-05T07:23:14.619Z,18.89
2023-05-05T07:26:17.667Z,18.97
2023-05-05T07:29:20.980Z,19.26
2023-05-05T07:32:24.039Z,19.35
2023-05-05T07:35:27.935Z,19.64
2023-05-05T07:38:30.942Z,19.85
2023-05-05T07:41:34.194Z,19.81
2023-05-05T07:44:37.406Z,19.87
2023-05-05T07:47:40.933Z,20.15
2023-05-05T07:50:43.677Z,20.39
2023-05-05T07:53:46.588Z,20.62
2023-05-05T07:56:49.404Z,20.72
2023-05-05T07:59:52.578Z,20.87
2023-05-05T08:02:55.480Z,20.07
2023-05-05T08:06:08.679Z,20.88
2023-05-05T08:09:11.465Z,21.14
2023-05-05T08:12:15.355Z,21.24
2023-05-05T08:15:18.062Z,21.41
2023-05-05T08:18:21.143Z,21.25
2023-05-05T08:21:24.045Z,21.25
2023-05-05T08:24:27.668Z,20.80
2023-05-05T08:27:31.885Z,20.43
2023-05-05T08:30:35.943Z,20.20
2023-05-05T08:33:38.730Z,19.98
2023-05-05T08:36:41.779Z,19.91
2023-05-05T08:39:44.848Z,20.13
2023-05-05T08:42:47.987Z,19.72
2023-05-05T08:45:51.876Z,19.42
2023-05-05T08:48:59.358Z,19.43
2023-05-05T08:52:05.259Z,20.19
2023-05-05T08:55:24.205Z,20.88
2023-05-05T08:58:37.648Z,21.39
2023-05-05T09:01:42.936Z,21.56
2023-05-05T09:04:45.739Z,21.83
2023-05-05T09:07:49.942Z,22.07
2023-05-05T09:10:52.884Z,21.96
2023-05-05T09:17:25.285Z,22.28
2023-05-05T09:20:36.261Z,22.51
2023-05-05T09:23:38.948Z,22.04
2023-05-05T09:26:45.695Z,22.61
2023-05-05T09:29:49.890Z,22.83
2023-05-05T09:32:56.054Z,23.08
2023-05-05T09:35:59.022Z,23.22
2023-05-05T09:39:06.335Z,23.07
2023-05-05T09:42:18.843Z,22.65
2023-05-05T09:45:23.449Z,22.20
2023-05-05T09:48:31.413Z,21.73
2023-05-05T09:51:34.655Z,21.76
2023-05-05T09:54:37.333Z,21.79
2023-05-05T09:57:40.402Z,21.48
2023-05-05T10:00:43.021Z,21.58
2023-05-05T10:03:54.856Z,21.58
2023-05-05T10:06:58.879Z,21.62
2023-05-05T10:10:07.359Z,22.07
2023-05-05T10:13:11.724Z,21.85
2023-05-05T10:16:15.165Z,21.93
2023-05-05T10:19:20.203Z,22.05
2023-05-05T10:22:24.197Z,22.14
2023-05-05T10:25:33.315Z,22.02
2023-05-05T10:28:55.702Z,22.12
2023-05-05T10:32:16.493Z,21.70
2023-05-05T10:35:27.827Z,21.59
2023-05-05T10:38:31.656Z,21.90
2023-05-05T10:41:35.604Z,21.98
2023-05-05T10:44:38.490Z,21.94
2023-05-05T10:47:44.609Z,21.94
2023-05-05T10:51:24.113Z,21.90
2023-05-05T10:54:56.103Z,21.89
2023-05-05T10:57:59.002Z,21.92
2023-05-05T11:01:03.124Z,21.88
2023-05-05T11:04:23.127Z,21.84
2023-05-05T11:07:27.590Z,21.75
2023-05-05T11:10:44.307Z,22.01
2023-05-05T11:13:47.720Z,22.13
2023-05-05T11:16:50.716Z,22.40
2023-05-05T11:19:53.787Z,23.19
2023-05-05T11:23:02.483Z,23.67
2023-05-05T11:26:05.505Z,24.28
2023-05-05T11:29:08.547Z,24.30
2023-05-05T11:32:13.162Z,24.59
2023-05-05T11:35:16.395Z,24.61
2023-05-05T11:38:23.364Z,24.79
2023-05-05T11:41:57.088Z,25.15
2023-05-05T11:45:00.256Z,24.51
2023-05-05T11:48:24.472Z,24.57
2023-05-05T11:51:28.801Z,25.09
2023-05-05T11:54:32.187Z,25.49
2023-05-05T11:57:35.197Z,24.86
2023-05-05T12:00:37.984Z,24.73
2023-05-05T12:03:41.381Z,24.82
2023-05-05T12:06:45.880Z,24.36
2023-05-05T12:09:50.037Z,23.79
2023-05-05T12:12:55.179Z,23.49
2023-05-05T12:16:13.037Z,23.24
2023-05-05T12:19:16.034Z,23.18
2023-05-05T12:22:25.641Z,23.24
2023-05-05T12:25:34.997Z,23.35
2023-05-05T12:28:47.929Z,23.35
2023-05-05T12:31:51.146Z,23.26
2023-05-05T12:34:57.346Z,23.41
2023-05-05T12:38:00.407Z,23.34
2023-05-05T12:41:03.783Z,23.39
2023-05-05T12:44:06.838Z,23.32
2023-05-05T12:47:11.570Z,23.13
2023-05-05T12:50:14.316Z,22.95
2023-05-05T12:53:24.789Z,23.02
2023-05-05T12:56:36.415Z,22.66
2023-05-05T12:59:39.790Z,22.83
2023-05-05T13:02:42.767Z,22.75
2023-05-05T13:05:45.962Z,22.86
2023-05-05T13:08:48.974Z,22.98
2023-05-05T13:11:53.082Z,22.46
2023-05-05T13:14:55.885Z,22.69
2023-05-05T13:18:03.002Z,22.54
2023-05-05T13:21:05.755Z,22.68
2023-05-05T13:24:23.666Z,23.06
2023-05-05T13:27:31.619Z,23.94
2023-05-05T13:30:34.720Z,24.10
2023-05-05T13:33:37.383Z,24.04
2023-05-05T13:36:40.519Z,23.89
2023-05-05T13:39:43.423Z,24.04
2023-05-05T13:42:46.939Z,24.49
2023-05-05T13:45:49.670Z,24.54
2023-05-05T13:48:56.392Z,24.96
2023-05-05T13:51:59.598Z,25.01
2023-05-05T13:55:02.867Z,24.97
2023-05-05T13:58:05.697Z,24.80
2023-05-05T14:01:08.744Z,25.61
2023-05-05T14:04:11.855Z,25.61
2023-05-05T14:07:14.633Z,25.90
2023-05-05T14:10:17.704Z,25.97
2023-05-05T14:13:20.545Z,26.11
2023-05-05T14:16:23.798Z,26.03
2023-05-05T14:19:26.568Z,25.95
2023-05-05T14:22:29.937Z,26.09
2023-05-05T14:25:32.851Z,26.46
2023-05-05T14:28:36.103Z,26.37
2023-05-05T14:31:38.960Z,25.21
2023-05-05T14:34:42.330Z,26.28
2023-05-05T14:37:45.020Z,26.27
2023-05-05T14:40:48.021Z,26.65
2023-05-05T14:43:50.790Z,26.25
2023-05-05T14:46:53.859Z,26.49
2023-05-05T14:49:56.756Z,26.68
2023-05-05T14:52:59.889Z,26.53
2023-05-05T14:56:03.294Z,26.51
2023-05-05T14:59:06.494Z,26.32
2023-05-05T15:02:09.235Z,26.44
2023-05-05T15:05:12.343Z,26.71
2023-05-05T15:08:15.307Z,26.84
2023-05-05T15:11:18.234Z,26.64
2023-05-05T15:14:21.285Z,26.59
2023-05-05T15:17:24.832Z,26.38
2023-05-05T15:20:27.902Z,26.61
2023-05-05T15:23:30.912Z,26.40
2023-05-05T15:26:33.609Z,26.62
2023-05-05T15:29:36.768Z,26.44
2023-05-05T15:32:42.554Z,26.33
2023-05-05T15:35:45.851Z,25.92
2023-05-05T15:38:49.342Z,26.24
2023-05-05T15:41:52.534Z,26.20
2023-05-05T15:44:55.243Z,26.20
2023-05-05T15:47:58.250Z,26.40
2023-05-05T15:51:01.277Z,26.25
2023-05-05T15:54:04.699Z,26.31
2023-05-05T15:57:07.407Z,26.39
2023-05-05T16:00:17.160Z,26.25
2023-05-05T16:03:20.486Z,25.45
2023-05-05T16:06:23.278Z,25.70
2023-05-05T16:09:26.396Z,25.86
2023-05-05T16:12:29.406Z,25.68
2023-05-05T16:15:32.340Z,25.68
2023-05-05T16:18:35.097Z,25.22
2023-05-05T16:21:38.168Z,25.70
2023-05-05T16:24:43.104Z,25.27
2023-05-05T16:27:47.088Z,24.80
2023-05-05T16:30:49.814Z,24.43
2023-05-05T16:33:52.958Z,24.46
2023-05-05T16:36:56.168Z,24.53
2023-05-05T16:40:00.843Z,24.59
2023-05-05T16:43:04.239Z,24.30
2023-05-05T16:46:07.396Z,24.24
2023-05-05T16:49:10.451Z,23.73
2023-05-05T16:52:13.696Z,23.62
2023-05-05T16:55:16.506Z,23.67
2023-05-05T16:58:20.780Z,23.73
2023-05-05T17:01:24.050Z,23.67
2023-05-05T17:04:27.399Z,23.44
2023-05-05T17:07:30.062Z,23.25
2023-05-05T17:10:33.767Z,23.10
2023-05-05T17:13:36.560Z,22.98
2023-05-05T17:16:39.614Z,22.71
2023-05-05T17:19:42.846Z,22.57
2023-05-05T17:22:46.706Z,22.39
2023-05-05T17:25:49.423Z,22.29
2023-05-05T17:29:01.090Z,22.17
2023-05-05T17:32:04.181Z,22.05
2023-05-05T17:35:08.031Z,21.85
2023-05-05T17:38:11.517Z,21.71
2023-05-05T17:41:14.510Z,21.46
2023-05-05T17:44:23.140Z,21.28
2023-05-05T17:47:27.264Z,21.12
2023-05-05T17:50:30.040Z,20.96
2023-05-05T17:53:33.164Z,20.84
2023-05-05T17:56:36.920Z,20.65
2023-05-05T17:59:39.919Z,20.55
2023-05-05T18:02:42.836Z,20.38
2023-05-05T18:05:45.945Z,20.20
2023-05-05T18:08:49.462Z,19.89
2023-05-05T18:11:54.071Z,19.77
2023-05-05T18:14:57.125Z,19.66
2023-05-05T18:18:00.870Z,19.58
2023-05-05T18:21:04.018Z,19.50
2023-05-05T18:24:19.275Z,19.33
2023-05-05T18:27:22.660Z,19.16
2023-05-05T18:30:25.722Z,18.77
2023-05-05T18:33:28.497Z,18.59
2023-05-05T18:36:31.594Z,18.59
2023-05-05T18:39:34.348Z,18.51
2023-05-05T18:45:51.090Z,18.40
2023-05-05T18:48:54.215Z,18.28
2023-05-05T18:51:57.667Z,17.99
2023-05-05T18:55:34.611Z,17.99
2023-05-05T18:58:51.571Z,17.97
2023-05-05T19:01:54.658Z,17.93
2023-05-05T19:04:57.491Z,17.82
2023-05-05T19:08:00.489Z,17.60
2023-05-05T19:11:03.820Z,17.38
2023-05-05T19:14:06.834Z,17.35
2023-05-05T19:17:09.549Z,17.26
2023-05-05T19:20:12.929Z,17.24
2023-05-05T19:23:15.707Z,17.13
2023-05-05T19:26:19.419Z,17.01
2023-05-05T19:29:22.037Z,16.89
2023-05-05T19:32:25.752Z,16.49
2023-05-05T19:35:29.701Z,16.77
2023-05-05T19:38:33.154Z,16.71
2023-05-05T19:41:35.957Z,16.62
2023-05-05T19:44:39.143Z,16.44
2023-05-05T19:47:41.829Z,16.46
2023-05-05T19:50:44.849Z,16.27
2023-05-05T19:53:47.628Z,16.19
2023-05-05T19:56:52.245Z,16.25
2023-05-05T19:59:55.300Z,16.06
2023-05-05T20:02:58.485Z,16.09
2023-05-05T20:06:01.577Z,16.04
2023-05-05T20:09:04.918Z,15.98
2023-05-05T20:12:08.065Z,15.91
2023-05-05T20:15:11.580Z,15.74
2023-05-05T20:18:14.613Z,15.67
2023-05-05T20:21:17.892Z,15.73
2023-05-05T20:24:20.868Z,15.69
2023-05-05T20:27:24.184Z,15.55
2023-05-05T20:30:28.386Z,15.47
2023-05-05T20:33:31.110Z,15.22
2023-05-05T20:36:34.152Z,15.26
2023-05-05T20:39:36.905Z,15.26
2023-05-05T20:42:39.938Z,15.21
2023-05-05T20:45:43.026Z,15.14
2023-05-05T20:48:46.170Z,15.12
2023-05-05T20:51:49.145Z,15.10
2023-05-05T20:54:52.247Z,15.06
2023-05-05T20:57:54.956Z,15.02
2023-05-05T21:00:58.176Z,15.06
2023-05-05T21:04:01.529Z,14.95
2023-05-05T21:07:04.563Z,14.88
2023-05-05T21:10:08.172Z,14.74
2023-05-05T21:13:11.829Z,14.64
2023-05-05T21:16:14.570Z,14.53
2023-05-05T21:19:17.581Z,14.52
2023-05-05T21:22:21.074Z,14.52
2023-05-05T21:25:24.661Z,14.44
2023-05-05T21:28:27.380Z,14.53
2023-05-05T21:31:30.461Z,14.54
2023-05-05T21:34:33.636Z,14.38
2023-05-05T21:37:39.107Z,14.38
2023-05-05T21:40:42.204Z,14.43
2023-05-05T21:43:45.357Z,14.22
2023-05-05T21:46:48.159Z,14.21
2023-05-05T21:49:51.289Z,14.13
2023-05-05T21:52:54.026Z,14.07
2023-05-05T21:55:57.165Z,13.97
2023-05-05T21:59:00.182Z,13.91
2023-05-05T22:02:03.606Z,13.84
2023-05-05T22:05:07.310Z,13.84
2023-05-05T22:08:10.022Z,13.88
2023-05-05T22:11:13.441Z,13.74
2023-05-05T22:14:16.274Z,13.81
2023-05-05T22:17:19.225Z,13.74
2023-05-05T22:20:21.953Z,13.70
2023-05-05T22:23:25.010Z,13.64
2023-05-05T22:26:27.823Z,13.55
2023-05-05T22:29:30.763Z,13.54
2023-05-05T22:32:33.504Z,13.55
2023-05-05T22:35:37.606Z,13.51
2023-05-05T22:38:40.458Z,13.46
2023-05-05T22:41:43.697Z,13.40
2023-05-05T22:44:46.417Z,13.41
2023-05-05T22:47:49.958Z,13.31
2023-05-05T22:50:52.683Z,13.21
2023-05-05T22:55:16.648Z,13.18
2023-05-05T22:58:19.335Z,13.08
2023-05-05T23:01:22.302Z,13.00
2023-05-05T23:04:25.180Z,13.02
2023-05-05T23:07:28.174Z,13.16
2023-05-05T23:10:31.145Z,13.15
2023-05-05T23:13:34.124Z,13.04
2023-05-05T23:16:36.834Z,12.94
2023-05-05T23:19:40.336Z,12.91
2023-05-05T23:22:42.975Z,12.95
2023-05-05T23:25:46.162Z,12.83
2023-05-05T23:28:48.801Z,12.85
2023-05-05T23:31:52.079Z,12.80
2023-05-05T23:34:54.681Z,12.70
2023-05-05T23:37:57.718Z,12.75
2023-05-05T23:41:00.453Z,12.66
2023-05-05T23:44:03.448Z,12.63
2023-05-05T23:47:06.223Z,12.48
2023-05-05T23:50:09.592Z,12.45
2023-05-05T23:53:41.079Z,12.32
2023-05-05T23:56:51.393Z,12.30
2023-05-05T23:59:54.133Z,12.21
